Time;durP1;ratioP1;P1;durP2;ratioP2;P2;SDS_P1;SDS_P2;PMS_P1;PMS_P2;Temp;Humidity;BMP_temperature;BMP_pressure;BME280_temperature;BME280_humidity;BME280_pressure;Samples;Min_cycle;Max_cycle;Signal;HPM_P1;HPM_P2
2021/04/08 00:01:59;;;;;;;11.30;3.78;;;;;;;;;;5114438;28;20091;-68
2021/04/08 00:04:25;;;;;;;8.02;3.35;;;;;;;;;;5113856;28;20050;-68
2021/04/08 00:06:51;;;;;;;6.05;3.15;;;;;;;;;;5095494;28;20108;-69
2021/04/08 00:09:17;;;;;;;5.55;3.45;;;;;;;;;;5114290;28;20360;-67
2021/04/08 00:11:43;;;;;;;5.90;3.03;;;;;;;;;;5114006;28;20460;-68
2021/04/08 00:14:10;;;;;;;6.68;3.55;;;;;;;;;;5114338;28;20512;-68
2021/04/08 00:16:36;;;;;;;7.85;3.30;;;;;;;;;;5113688;28;20471;-68
2021/04/08 00:19:02;;;;;;;6.22;2.17;;;;;;;;;;5095360;28;20050;-68
2021/04/08 00:21:30;;;;;;;5.03;2.25;;;;;;;;;;5095697;28;20048;-68
2021/04/08 00:23:56;;;;;;;4.75;2.38;;;;;;;;;;5095739;28;20015;-67
2021/04/08 00:26:22;;;;;;;5.75;2.13;;;;;;;;;;5095343;28;20020;-68
2021/04/08 00:28:49;;;;;;;2.85;1.80;;;;;;;;;;5095843;28;20019;-67
2021/04/08 00:31:15;;;;;;;3.40;2.40;;;;;;;;;;5113588;28;20030;-69
2021/04/08 00:33:41;;;;;;;3.15;2.25;;;;;;;;;;5113351;28;20482;-67
2021/04/08 00:36:07;;;;;;;3.95;2.47;;;;;;;;;;5113829;28;20034;-68
2021/04/08 00:38:33;;;;;;;3.47;1.98;;;;;;;;;;5113761;28;20062;-68
2021/04/08 00:40:59;;;;;;;5.85;2.75;;;;;;;;;;5095196;28;20020;-69
2021/04/08 00:43:25;;;;;;;4.15;2.45;;;;;;;;;;5095680;28;20382;-70
2021/04/08 00:45:51;;;;;;;3.53;2.47;;;;;;;;;;5095489;28;20031;-71
2021/04/08 00:48:17;;;;;;;8.80;2.50;;;;;;;;;;5095072;28;20020;-71
2021/04/08 00:50:44;;;;;;;5.18;2.30;;;;;;;;;;5095400;28;20023;-71
2021/04/08 00:53:12;;;;;;;3.25;2.03;;;;;;;;;;5096967;28;20475;-69
2021/04/08 00:55:40;;;;;;;2.63;2.13;;;;;;;;;;5116998;28;20109;-71
2021/04/08 00:58:06;;;;;;;;;;;;;;;;;;5117395;28;20023;-71
2021/04/08 01:00:33;;;;;;;3.20;2.13;;;;;;;;;;5098884;28;20006;-68
2021/04/08 01:02:59;;;;;;;5.03;2.63;;;;;;;;;;5116883;28;20094;-69
2021/04/08 01:05:26;;;;;;;4.82;3.13;;;;;;;;;;5117405;28;20023;-69
2021/04/08 01:07:52;;;;;;;3.38;1.85;;;;;;;;;;5116696;28;20632;-69
2021/04/08 01:10:21;;;;;;;4.70;2.90;;;;;;;;;;5098720;28;20024;-66
2021/04/08 01:12:47;;;;;;;3.80;2.35;;;;;;;;;;5116920;28;20027;-68
2021/04/08 01:15:13;;;;;;;6.38;2.97;;;;;;;;;;5098303;28;20027;-70
2021/04/08 01:17:48;;;;;;;4.38;2.17;;;;;;;;;;5117279;28;20016;-67
2021/04/08 01:20:26;;;;;;;4.97;2.63;;;;;;;;;;5098311;28;20068;-69
2021/04/08 01:22:58;;;;;;;3.38;1.85;;;;;;;;;;5116569;28;20062;-71
2021/04/08 01:25:24;;;;;;;4.32;2.25;;;;;;;;;;5098531;28;20016;-68
2021/04/08 01:28:09;;;;;;;3.03;2.03;;;;;;;;;;5098343;28;20051;-68
2021/04/08 01:30:42;;;;;;;4.00;2.53;;;;;;;;;;5116046;28;20031;-69
2021/04/08 01:33:30;;;;;;;3.15;2.30;;;;;;;;;;5098308;28;20016;-71
2021/04/08 01:35:58;;;;;;;3.85;3.13;;;;;;;;;;5098007;28;20069;-69
2021/04/08 01:38:57;;;;;;;5.03;2.53;;;;;;;;;;5116433;28;20031;-69
2021/04/08 01:41:23;;;;;;;4.78;3.20;;;;;;;;;;5043412;28;20036;-67
2021/04/08 01:43:50;;;;;;;5.40;2.95;;;;;;;;;;5097796;28;20137;-70
2021/04/08 01:46:18;;;;;;;4.30;2.85;;;;;;;;;;5098062;28;20023;-69
2021/04/08 01:48:47;;;;;;;7.30;3.55;;;;;;;;;;5097944;28;20031;-66
2021/04/08 01:51:14;;;;;;;5.50;3.03;;;;;;;;;;5115920;28;20031;-67
2021/04/08 01:53:51;;;;;;;4.57;3.55;;;;;;;;;;5116203;28;20054;-65
2021/04/08 01:56:18;;;;;;;7.85;3.42;;;;;;;;;;5116762;28;20028;-66
2021/04/08 01:58:45;;;;;;;4.88;2.72;;;;;;;;;;5115787;28;20359;-69
2021/04/08 02:01:11;;;;;;;4.50;2.67;;;;;;;;;;5097767;28;20073;-69
2021/04/08 02:03:38;;;;;;;5.00;2.05;;;;;;;;;;5097070;28;20141;-69
2021/04/08 02:06:08;;;;;;;3.72;2.75;;;;;;;;;;5097595;28;20023;-67
2021/04/08 02:08:38;;;;;;;3.28;2.58;;;;;;;;;;5115832;28;20031;-67
2021/04/08 02:11:05;;;;;;;4.32;2.95;;;;;;;;;;5097273;28;20024;-66
2021/04/08 02:13:31;;;;;;;4.47;3.05;;;;;;;;;;5115813;28;20035;-66
2021/04/08 02:15:58;;;;;;;4.28;2.38;;;;;;;;;;5115770;28;20011;-67
2021/04/08 02:18:25;;;;;;;5.00;2.47;;;;;;;;;;5115265;28;20031;-66
2021/04/08 02:20:53;;;;;;;3.05;1.98;;;;;;;;;;5115575;28;20044;-67
2021/04/08 02:23:24;;;;;;;3.45;2.88;;;;;;;;;;5097348;28;20345;-66
2021/04/08 02:25:51;;;;;;;5.90;2.67;;;;;;;;;;5096986;28;20019;-69
2021/04/08 02:28:17;;;;;;;5.85;2.53;;;;;;;;;;5115449;28;20019;-67
2021/04/08 02:30:47;;;;;;;5.40;3.25;;;;;;;;;;5097144;28;20386;-67
2021/04/08 02:33:19;;;;;;;2.95;2.38;;;;;;;;;;5114928;28;20466;-67
2021/04/08 02:35:46;;;;;;;5.25;2.72;;;;;;;;;;5115399;28;20026;-67
2021/04/08 02:38:12;;;;;;;4.70;3.03;;;;;;;;;;5096985;28;20077;-68
2021/04/08 02:40:38;;;;;;;3.65;2.58;;;;;;;;;;5115240;28;20023;-68
2021/04/08 02:43:04;;;;;;;3.80;2.63;;;;;;;;;;5115218;28;20015;-69
2021/04/08 02:45:30;;;;;;;6.25;2.95;;;;;;;;;;5114942;28;20442;-66
2021/04/08 02:47:56;;;;;;;5.05;2.80;;;;;;;;;;5096171;28;20076;-66
2021/04/08 02:50:23;;;;;;;5.63;3.28;;;;;;;;;;5114804;28;20069;-66
2021/04/08 02:52:53;;;;;;;3.92;2.33;;;;;;;;;;5114428;28;20569;-67
2021/04/08 02:55:21;;;;;;;8.45;2.85;;;;;;;;;;5096859;28;20375;-66
2021/04/08 02:57:52;;;;;;;3.38;2.63;;;;;;;;;;5114635;28;20016;-67
2021/04/08 03:00:18;;;;;;;4.95;3.45;;;;;;;;;;5114582;28;20337;-68
2021/04/08 03:02:46;;;;;;;4.95;2.35;;;;;;;;;;5097468;28;20050;-67
2021/04/08 03:05:13;;;;;;;4.05;2.38;;;;;;;;;;5096553;28;20026;-69
2021/04/08 03:07:47;;;;;;;3.55;2.42;;;;;;;;;;5114397;28;20030;-67
2021/04/08 03:10:14;;;;;;;4.20;2.90;;;;;;;;;;5096526;28;20031;-67
2021/04/08 03:12:40;;;;;;;;;;;;;;;;;;5114869;28;20371;-66
2021/04/08 03:15:07;;;;;;;6.93;2.78;;;;;;;;;;5095873;28;19900;-66
2021/04/08 03:17:36;;;;;;;3.03;2.13;;;;;;;;;;5095947;28;20114;-67
2021/04/08 03:20:03;;;;;;;7.15;2.72;;;;;;;;;;5114360;28;20268;-68
2021/04/08 03:22:29;;;;;;;3.72;2.72;;;;;;;;;;5114063;28;20367;-68
2021/04/08 03:24:57;;;;;;;5.55;2.33;;;;;;;;;;5114239;28;20087;-70
2021/04/08 03:27:25;;;;;;;8.02;3.03;;;;;;;;;;5114425;28;20023;-67
2021/04/08 03:29:52;;;;;;;8.73;3.10;;;;;;;;;;5113881;28;20096;-67
2021/04/08 03:32:18;;;;;;;4.68;3.13;;;;;;;;;;5096338;28;20539;-68
2021/04/08 03:34:45;;;;;;;3.13;2.77;;;;;;;;;;5111250;28;20455;-68
2021/04/08 03:37:11;;;;;;;4.70;3.35;;;;;;;;;;5098798;28;20089;-68
2021/04/08 03:39:37;;;;;;;8.05;3.58;;;;;;;;;;5101495;28;20352;-67
2021/04/08 03:42:04;;;;;;;5.22;3.53;;;;;;;;;;5084475;28;20020;-67
2021/04/08 03:44:30;;;;;;;11.73;3.65;;;;;;;;;;5084328;28;20016;-68
2021/04/08 03:46:59;;;;;;;6.45;3.35;;;;;;;;;;5098181;28;20023;-67
2021/04/08 03:49:26;;;;;;;4.35;2.72;;;;;;;;;;5102564;28;20426;-68
2021/04/08 03:51:53;;;;;;;4.28;2.80;;;;;;;;;;5085542;28;20359;-70
2021/04/08 03:54:21;;;;;;;6.13;3.30;;;;;;;;;;5085102;28;20027;-66
2021/04/08 03:56:50;;;;;;;5.82;3.38;;;;;;;;;;5082820;28;20016;-70
2021/04/08 03:59:17;;;;;;;5.53;3.30;;;;;;;;;;5085547;28;20142;-70
2021/04/08 04:01:44;;;;;;;5.28;3.08;;;;;;;;;;5082073;28;20023;-72
2021/04/08 04:04:11;;;;;;;8.93;4.07;;;;;;;;;;5074917;28;20020;-71
2021/04/08 04:06:41;;;;;;;7.00;4.32;;;;;;;;;;5073643;28;20015;-68
2021/04/08 04:09:07;;;;;;;13.20;3.83;;;;;;;;;;5073592;28;20054;-69
2021/04/08 04:11:34;;;;;;;8.70;4.32;;;;;;;;;;5073244;28;20081;-69
2021/04/08 04:14:00;;;;;;;;;;;;;;;;;;5092008;28;20023;-68
2021/04/08 04:16:28;;;;;;;7.72;4.50;;;;;;;;;;5074289;28;19900;-70
2021/04/08 04:18:54;;;;;;;13.32;6.00;;;;;;;;;;5073470;28;20483;-70
2021/04/08 04:21:20;;;;;;;17.55;7.18;;;;;;;;;;5073336;28;20044;-69
2021/04/08 04:23:46;;;;;;;12.90;6.78;;;;;;;;;;5091045;28;20017;-69
2021/04/08 04:26:13;;;;;;;19.48;8.32;;;;;;;;;;5092028;28;20016;-70
2021/04/08 04:28:39;;;;;;;16.43;7.83;;;;;;;;;;5095999;28;20020;-68
2021/04/08 04:31:05;;;;;;;16.02;7.28;;;;;;;;;;5077825;28;20027;-70
2021/04/08 04:33:31;;;;;;;10.57;6.15;;;;;;;;;;5078409;28;20517;-69
2021/04/08 04:35:58;;;;;;;17.63;8.15;;;;;;;;;;5079663;28;20016;-70
2021/04/08 04:38:24;;;;;;;28.10;13.70;;;;;;;;;;5097393;28;20032;-70
2021/04/08 04:40:50;;;;;;;31.60;18.40;;;;;;;;;;5096957;28;20085;-68
2021/04/08 04:43:16;;;;;;;29.45;18.02;;;;;;;;;;5097333;28;20016;-67
2021/04/08 04:45:42;;;;;;;19.38;11.40;;;;;;;;;;5079068;28;20106;-69
2021/04/08 04:48:13;;;;;;;14.05;7.65;;;;;;;;;;5079364;28;20077;-71
2021/04/08 04:50:39;;;;;;;18.90;8.13;;;;;;;;;;5097578;28;20016;-67
2021/04/08 04:53:05;;;;;;;14.27;7.88;;;;;;;;;;5078439;28;20031;-71
2021/04/08 04:55:31;;;;;;;13.02;6.30;;;;;;;;;;5096683;28;20020;-69
2021/04/08 04:57:58;;;;;;;13.00;5.78;;;;;;;;;;5096553;28;20096;-69
2021/04/08 05:00:24;;;;;;;13.82;6.95;;;;;;;;;;5078347;28;20027;-70
2021/04/08 05:02:50;;;;;;;12.05;6.55;;;;;;;;;;5097342;28;20016;-68
2021/04/08 05:05:16;;;;;;;12.27;6.80;;;;;;;;;;5078567;28;20039;-69
2021/04/08 05:07:43;;;;;;;14.55;6.18;;;;;;;;;;5078214;28;20027;-68
2021/04/08 05:10:09;;;;;;;16.95;6.38;;;;;;;;;;5078488;28;20025;-66
2021/04/08 05:12:35;;;;;;;9.70;6.00;;;;;;;;;;5096253;28;20448;-68
2021/04/08 05:15:01;;;;;;;13.82;6.18;;;;;;;;;;5096671;28;20053;-67
2021/04/08 05:17:28;;;;;;;11.85;6.28;;;;;;;;;;5096201;28;20020;-68
2021/04/08 05:19:55;;;;;;;10.73;5.20;;;;;;;;;;5077813;28;20051;-63
2021/04/08 05:22:21;;;;;;;12.25;5.35;;;;;;;;;;5096800;28;20019;-64
2021/04/08 05:24:47;;;;;;;11.80;5.70;;;;;;;;;;5096685;28;20023;-63
2021/04/08 05:27:13;;;;;;;12.55;7.25;;;;;;;;;;5095864;28;20463;-63
2021/04/08 05:29:39;;;;;;;22.38;8.18;;;;;;;;;;5096572;28;20039;-73
2021/04/08 05:32:06;;;;;;;15.10;8.60;;;;;;;;;;5078429;28;20016;-70
2021/04/08 05:34:32;;;;;;;14.68;8.43;;;;;;;;;;5079076;28;20406;-75
2021/04/08 05:36:58;;;;;;;20.02;9.55;;;;;;;;;;5098096;28;20020;-72
2021/04/08 05:39:24;;;;;;;22.98;8.18;;;;;;;;;;5099581;28;20161;-77
2021/04/08 05:41:50;;;;;;;17.38;5.95;;;;;;;;;;5079376;28;20059;-75
2021/04/08 05:44:16;;;;;;;13.80;7.57;;;;;;;;;;5080296;28;20044;-75
2021/04/08 05:46:42;;;;;;;39.72;28.17;;;;;;;;;;5080215;28;20016;-75
2021/04/08 05:49:09;;;;;;;12.95;5.97;;;;;;;;;;5081040;28;20031;-76
2021/04/08 05:51:35;;;;;;;15.27;9.93;;;;;;;;;;5078616;28;20089;-76
2021/04/08 05:54:01;;;;;;;8.55;6.13;;;;;;;;;;5095943;28;20462;-77
2021/04/08 05:56:28;;;;;;;9.13;6.05;;;;;;;;;;5096318;28;20020;-72
2021/04/08 05:58:54;;;;;;;14.07;9.45;;;;;;;;;;5079322;28;20157;-74
2021/04/08 06:01:20;;;;;;;11.60;7.90;;;;;;;;;;5078905;28;20016;-70
2021/04/08 06:03:48;;;;;;;16.67;9.15;;;;;;;;;;5078022;28;20042;-74
2021/04/08 06:06:13;;;;;;;;;;;;;;;;;;5079060;28;20107;-74
2021/04/08 06:08:40;;;;;;;14.95;8.98;;;;;;;;;;5078568;28;19998;-75
2021/04/08 06:11:06;;;;;;;25.63;14.45;;;;;;;;;;5081457;28;20521;-73
2021/04/08 06:13:32;;;;;;;19.17;11.75;;;;;;;;;;5079231;28;20020;-74
2021/04/08 06:15:58;;;;;;;20.17;11.98;;;;;;;;;;5079161;28;20021;-76
2021/04/08 06:18:24;;;;;;;16.20;8.18;;;;;;;;;;5081709;28;20049;-75
2021/04/08 06:20:50;;;;;;;14.40;9.10;;;;;;;;;;5080599;28;20041;-74
2021/04/08 06:23:16;;;;;;;21.30;9.07;;;;;;;;;;5078282;28;20020;-78
2021/04/08 06:25:43;;;;;;;10.13;6.05;;;;;;;;;;5087125;28;20017;-74
2021/04/08 06:28:09;;;;;;;9.07;5.22;;;;;;;;;;5087844;28;20023;-75
2021/04/08 06:30:37;;;;;;;9.98;4.88;;;;;;;;;;5086844;28;20534;-74
2021/04/08 06:33:03;;;;;;;9.23;5.35;;;;;;;;;;5085863;28;20020;-76
2021/04/08 06:35:29;;;;;;;10.55;4.88;;;;;;;;;;5083583;28;20016;-75
2021/04/08 06:37:55;;;;;;;6.03;3.80;;;;;;;;;;5087194;28;20024;-75
2021/04/08 06:40:22;;;;;;;4.20;3.03;;;;;;;;;;5100919;28;20479;-77
2021/04/08 06:42:49;;;;;;;7.82;3.72;;;;;;;;;;5095907;28;20525;-78
2021/04/08 06:45:16;;;;;;;9.63;4.72;;;;;;;;;;5095787;28;20062;-76
2021/04/08 06:47:42;;;;;;;12.52;6.05;;;;;;;;;;5100813;28;20035;-76
2021/04/08 06:50:08;;;;;;;12.60;5.68;;;;;;;;;;5094229;28;20028;-77
2021/04/08 06:52:35;;;;;;;14.60;6.70;;;;;;;;;;5098682;28;20042;-77
2021/04/08 06:55:01;;;;;;;16.67;8.43;;;;;;;;;;5103657;28;20256;-76
2021/04/08 06:57:28;;;;;;;25.40;10.93;;;;;;;;;;5101171;28;20040;-77
2021/04/08 06:59:54;;;;;;;23.88;11.60;;;;;;;;;;5099483;28;20046;-79
2021/04/08 07:02:21;;;;;;;25.17;9.57;;;;;;;;;;5100048;28;20031;-77
2021/04/08 07:04:48;;;;;;;14.30;6.95;;;;;;;;;;5099735;28;20012;-77
2021/04/08 07:07:15;;;;;;;13.32;5.65;;;;;;;;;;5100868;28;20030;-76
2021/04/08 07:09:41;;;;;;;11.73;6.28;;;;;;;;;;5099950;28;20027;-76
2021/04/08 07:12:08;;;;;;;9.10;3.67;;;;;;;;;;5098914;28;20387;-80
2021/04/08 07:14:34;;;;;;;9.10;5.45;;;;;;;;;;5096231;28;20048;-80
2021/04/08 07:17:00;;;;;;;6.97;5.00;;;;;;;;;;5096639;28;20085;-79
2021/04/08 07:19:29;;;;;;;9.70;5.93;;;;;;;;;;5097113;28;20460;-76
2021/04/08 07:21:59;;;;;;;13.50;4.70;;;;;;;;;;5093195;28;20040;-78
2021/04/08 07:24:25;;;;;;;7.82;4.15;;;;;;;;;;5094140;28;20452;-78
2021/04/08 07:26:55;;;;;;;11.50;3.80;;;;;;;;;;5094548;28;20360;-77
2021/04/08 07:29:21;;;;;;;9.88;3.50;;;;;;;;;;5098174;28;20016;-81
2021/04/08 07:31:48;;;;;;;12.10;6.15;;;;;;;;;;5095493;28;20023;-78
2021/04/08 07:34:31;;;;;;;11.65;4.30;;;;;;;;;;5094444;28;20464;-76
2021/04/08 07:36:57;;;;;;;8.68;4.40;;;;;;;;;;5095589;28;20016;-76
2021/04/08 07:39:23;;;;;;;6.03;2.78;;;;;;;;;;5094809;28;20017;-76
2021/04/08 07:42:01;;;;;;;6.20;3.05;;;;;;;;;;5094476;28;20020;-78
2021/04/08 07:44:28;;;;;;;3.30;1.95;;;;;;;;;;5093343;28;20016;-75
2021/04/08 07:46:55;;;;;;;4.60;2.95;;;;;;;;;;5093691;28;20070;-76
2021/04/08 07:49:28;;;;;;;6.88;4.03;;;;;;;;;;5095529;28;20421;-77
2021/04/08 07:51:55;;;;;;;6.50;2.85;;;;;;;;;;5096728;28;20024;-75
2021/04/08 07:54:22;;;;;;;8.20;4.03;;;;;;;;;;5099216;28;20480;-75
2021/04/08 07:56:48;;;;;;;11.52;4.88;;;;;;;;;;5099586;28;20456;-77
2021/04/08 07:59:18;;;;;;;12.90;4.22;;;;;;;;;;5095963;28;20433;-75
2021/04/08 08:01:45;;;;;;;12.50;5.00;;;;;;;;;;5092649;28;20107;-78
2021/04/08 08:04:24;;;;;;;9.20;5.18;;;;;;;;;;5098282;28;20016;-80
2021/04/08 08:06:51;;;;;;;14.93;4.78;;;;;;;;;;5096615;28;20491;-75
2021/04/08 08:09:21;;;;;;;12.07;5.90;;;;;;;;;;5096316;28;20119;-79
2021/04/08 08:11:49;;;;;;;7.30;4.03;;;;;;;;;;5096602;28;20740;-78
2021/04/08 08:14:15;;;;;;;6.60;3.75;;;;;;;;;;5096206;28;20017;-79
2021/04/08 08:17:00;;;;;;;14.77;8.50;;;;;;;;;;5096229;28;20016;-79
2021/04/08 08:19:27;;;;;;;8.95;4.65;;;;;;;;;;5096591;28;20323;-78
2021/04/08 08:21:54;;;;;;;7.53;3.55;;;;;;;;;;5096209;28;20125;-78
2021/04/08 08:24:21;;;;;;;16.15;8.90;;;;;;;;;;5096369;28;20026;-78
2021/04/08 08:26:48;;;;;;;18.17;8.20;;;;;;;;;;5096333;28;20016;-76
2021/04/08 08:29:17;;;;;;;10.70;6.55;;;;;;;;;;5096013;28;20031;-80
2021/04/08 08:31:44;;;;;;;16.52;5.45;;;;;;;;;;5096635;28;20077;-81
2021/04/08 08:34:11;;;;;;;10.65;4.82;;;;;;;;;;5096293;28;20054;-77
2021/04/08 08:36:38;;;;;;;13.25;6.07;;;;;;;;;;5096047;28;20023;-79
2021/04/08 08:39:06;;;;;;;10.45;5.47;;;;;;;;;;5096141;28;20016;-74
2021/04/08 08:41:34;;;;;;;12.77;4.78;;;;;;;;;;5096584;28;20449;-75
2021/04/08 08:44:00;;;;;;;16.90;8.20;;;;;;;;;;5095574;28;20072;-77
2021/04/08 08:46:27;;;;;;;9.82;4.38;;;;;;;;;;5095949;28;20104;-76
2021/04/08 08:48:54;;;;;;;13.38;5.90;;;;;;;;;;5095815;28;20027;-77
2021/04/08 08:51:21;;;;;;;10.57;3.80;;;;;;;;;;5095821;28;20376;-78
2021/04/08 08:53:47;;;;;;;11.88;4.78;;;;;;;;;;5096328;28;20251;-78
2021/04/08 08:56:15;;;;;;;11.35;3.33;;;;;;;;;;5096833;28;20024;-76
2021/04/08 08:58:41;;;;;;;9.57;4.47;;;;;;;;;;5097439;28;20099;-78
2021/04/08 09:01:07;;;;;;;12.35;5.57;;;;;;;;;;5095425;28;20016;-77
2021/04/08 09:03:34;;;;;;;7.20;3.05;;;;;;;;;;5097223;28;20020;-78
2021/04/08 09:06:05;;;;;;;11.38;6.78;;;;;;;;;;5095686;28;20452;-81
2021/04/08 09:08:32;;;;;;;4.78;2.53;;;;;;;;;;5095543;28;20081;-83
2021/04/08 09:10:58;;;;;;;15.30;3.97;;;;;;;;;;5095640;28;20073;-83
2021/04/08 09:13:25;;;;;;;7.05;3.63;;;;;;;;;;5094512;28;20367;-79
2021/04/08 09:15:51;;;;;;;6.55;3.97;;;;;;;;;;5095261;28;20024;-84
2021/04/08 09:18:21;;;;;;;7.65;3.20;;;;;;;;;;5095422;28;20030;-78
2021/04/08 09:20:49;;;;;;;8.20;3.33;;;;;;;;;;5094963;28;20097;-77
2021/04/08 09:23:18;;;;;;;6.70;2.80;;;;;;;;;;5095898;28;20016;-78
2021/04/08 09:25:47;;;;;;;9.18;3.70;;;;;;;;;;5095129;28;20114;-80
2021/04/08 09:28:15;;;;;;;5.50;1.52;;;;;;;;;;5094695;28;20023;-82
2021/04/08 09:30:43;;;;;;;8.88;3.42;;;;;;;;;;5095059;28;20044;-76
2021/04/08 09:33:09;;;;;;;8.68;3.42;;;;;;;;;;5095269;28;20397;-76
2021/04/08 09:35:36;;;;;;;5.23;2.70;;;;;;;;;;5094792;28;20456;-76
2021/04/08 09:38:02;;;;;;;7.20;3.05;;;;;;;;;;5094913;28;20024;-76
2021/04/08 09:40:34;;;;;;;7.40;3.67;;;;;;;;;;5096543;28;20045;-76
2021/04/08 09:43:02;;;;;;;5.72;2.80;;;;;;;;;;5094629;28;20027;-73
2021/04/08 09:45:29;;;;;;;3.80;2.05;;;;;;;;;;5094763;28;20157;-76
2021/04/08 09:48:07;;;;;;;13.30;3.73;;;;;;;;;;5096112;28;20020;-77
2021/04/08 09:50:45;;;;;;;9.35;2.92;;;;;;;;;;5094588;28;20024;-75
2021/04/08 09:53:12;;;;;;;2.05;1.77;;;;;;;;;;5095036;28;20495;-76
2021/04/08 09:55:39;;;;;;;6.68;2.25;;;;;;;;;;5094540;28;20024;-76
2021/04/08 09:58:06;;;;;;;9.98;2.33;;;;;;;;;;5094177;28;20027;-75
2021/04/08 10:00:33;;;;;;;8.10;3.00;;;;;;;;;;5093983;28;20360;-74
2021/04/08 10:03:04;;;;;;;7.60;3.85;;;;;;;;;;5094306;28;20020;-73
2021/04/08 10:05:32;;;;;;;9.90;4.78;;;;;;;;;;5093808;28;20022;-71
2021/04/08 10:07:59;;;;;;;25.20;14.75;;;;;;;;;;5094099;28;20024;-75
2021/04/08 10:10:39;;;;;;;6.20;3.33;;;;;;;;;;5093927;28;20028;-75
2021/04/08 10:13:21;;;;;;;17.15;7.97;;;;;;;;;;5094127;28;20024;-74
2021/04/08 10:15:48;;;;;;;2.33;1.20;;;;;;;;;;5095037;28;20360;-74
2021/04/08 10:18:19;;;;;;;7.05;2.90;;;;;;;;;;5086624;28;20020;-77
2021/04/08 10:20:49;;;;;;;3.13;1.77;;;;;;;;;;5099543;28;20387;-71
2021/04/08 10:23:29;;;;;;;3.13;1.67;;;;;;;;;;5097408;28;20020;-71
2021/04/08 10:26:04;;;;;;;7.57;3.40;;;;;;;;;;5097001;28;20038;-68
2021/04/08 10:28:37;;;;;;;4.25;2.65;;;;;;;;;;5097196;28;20460;-66
2021/04/08 10:31:17;;;;;;;7.70;2.65;;;;;;;;;;5115605;28;20023;-69
2021/04/08 10:33:45;;;;;;;4.93;1.23;;;;;;;;;;5115076;28;20050;-70
2021/04/08 10:36:11;;;;;;;6.15;1.73;;;;;;;;;;5096999;28;20065;-71
2021/04/08 10:38:37;;;;;;;5.50;2.25;;;;;;;;;;5096780;28;20020;-68
2021/04/08 10:41:03;;;;;;;9.27;3.40;;;;;;;;;;5108350;28;20059;-70
2021/04/08 10:43:30;;;;;;;15.53;6.03;;;;;;;;;;5085091;28;20012;-71
2021/04/08 10:45:57;;;;;;;4.60;2.72;;;;;;;;;;5085981;28;20019;-70
2021/04/08 10:48:23;;;;;;;;;;;;;;;;;;5099900;28;20035;-70
2021/04/08 10:50:50;;;;;;;5.93;2.65;;;;;;;;;;5094698;28;20261;-71
2021/04/08 10:53:17;;;;;;;12.68;6.45;;;;;;;;;;5076271;28;20016;-68
2021/04/08 10:55:44;;;;;;;8.48;4.15;;;;;;;;;;5076460;28;20031;-69
2021/04/08 10:58:20;;;;;;;15.95;7.25;;;;;;;;;;5094624;28;20111;-69
2021/04/08 11:00:46;;;;;;;8.95;4.68;;;;;;;;;;5094510;28;20020;-70
2021/04/08 11:03:14;;;;;;;8.52;2.30;;;;;;;;;;5094575;28;20094;-72
2021/04/08 11:05:40;;;;;;;14.02;6.75;;;;;;;;;;5094491;28;20016;-67
2021/04/08 11:08:06;;;;;;;10.07;3.58;;;;;;;;;;5094104;28;20024;-70
2021/04/08 11:10:33;;;;;;;8.35;3.55;;;;;;;;;;5094385;28;20382;-73
2021/04/08 11:13:00;;;;;;;7.23;3.63;;;;;;;;;;5076212;28;20104;-71
2021/04/08 11:15:26;;;;;;;;;;;;;;;;;;5076279;28;20397;-70
2021/04/08 11:17:54;;;;;;;11.32;3.95;;;;;;;;;;5094513;28;19942;-70
2021/04/08 11:20:20;;;;;;;;;;;;;;;;;;5075952;28;20468;-72
2021/04/08 11:22:47;;;;;;;6.53;2.22;;;;;;;;;;5076938;28;20000;-73
2021/04/08 11:25:14;;;;;;;7.57;2.08;;;;;;;;;;5075919;28;20051;-73
2021/04/08 11:27:44;;;;;;;15.85;3.22;;;;;;;;;;5093436;28;20499;-72
2021/04/08 11:30:11;;;;;;;8.38;3.92;;;;;;;;;;5075706;28;20024;-74
2021/04/08 11:32:45;;;;;;;22.58;11.48;;;;;;;;;;5075929;28;20452;-73
2021/04/08 11:35:22;;;;;;;38.10;18.20;;;;;;;;;;5075183;28;20027;-72
2021/04/08 11:37:48;;;;;;;;;;;;;;;;;;5075088;28;20115;-72
2021/04/08 11:40:14;;;;;;;27.23;11.27;;;;;;;;;;5075568;28;20304;-74
2021/04/08 11:42:40;;;;;;;16.13;8.85;;;;;;;;;;5075285;28;20024;-72
2021/04/08 11:45:23;;;;;;;8.45;2.72;;;;;;;;;;5075835;28;20097;-75
2021/04/08 11:47:58;;;;;;;4.03;1.92;;;;;;;;;;5075863;28;20020;-71
2021/04/08 11:50:31;;;;;;;20.52;7.55;;;;;;;;;;5075226;28;20029;-74
2021/04/08 11:53:06;;;;;;;19.73;9.27;;;;;;;;;;5076022;28;20448;-72
2021/04/08 11:55:38;;;;;;;18.20;8.75;;;;;;;;;;5075425;28;20519;-73
2021/04/08 11:58:05;;;;;;;30.33;20.25;;;;;;;;;;5075702;28;20020;-72
2021/04/08 12:00:31;;;;;;;24.43;16.43;;;;;;;;;;5076069;28;20368;-72
2021/04/08 12:02:57;;;;;;;13.18;7.05;;;;;;;;;;5081550;28;20264;-73
2021/04/08 12:05:24;;;;;;;24.13;15.43;;;;;;;;;;5083426;28;20031;-73
2021/04/08 12:07:50;;;;;;;33.50;22.90;;;;;;;;;;5083291;28;20020;-71
2021/04/08 12:10:26;;;;;;;6.00;3.20;;;;;;;;;;5084026;28;20019;-72
2021/04/08 12:12:53;;;;;;;4.80;3.72;;;;;;;;;;5085092;28;20020;-74
2021/04/08 12:15:19;;;;;;;;;;;;;;;;;;5085065;28;20047;-72
2021/04/08 12:17:55;;;;;;;5.35;2.40;;;;;;;;;;5085573;28;19950;-71
2021/04/08 12:20:21;;;;;;;2.55;1.90;;;;;;;;;;5102610;28;20047;-71
2021/04/08 12:22:48;;;;;;;3.22;1.20;;;;;;;;;;5103737;28;20371;-72
2021/04/08 12:25:18;;;;;;;5.85;2.45;;;;;;;;;;5101847;28;20035;-69
2021/04/08 12:27:45;;;;;;;2.53;1.52;;;;;;;;;;5101076;28;20028;-67
2021/04/08 12:30:12;;;;;;;4.23;2.47;;;;;;;;;;5084739;28;20014;-70
2021/04/08 12:32:38;;;;;;;4.60;1.35;;;;;;;;;;5112303;28;20019;-73
2021/04/08 12:35:05;;;;;;;14.65;6.53;;;;;;;;;;5113557;28;20016;-72
2021/04/08 12:37:32;;;;;;;4.45;1.83;;;;;;;;;;5113586;28;20028;-73
2021/04/08 12:39:58;;;;;;;3.05;1.50;;;;;;;;;;5095550;28;20020;-72
2021/04/08 12:42:25;;;;;;;21.70;6.47;;;;;;;;;;5095497;28;20085;-74
2021/04/08 12:44:51;;;;;;;16.38;4.38;;;;;;;;;;5095418;28;20359;-72
2021/04/08 12:47:19;;;;;;;11.38;3.92;;;;;;;;;;5095396;28;20047;-73
2021/04/08 12:49:45;;;;;;;14.38;3.88;;;;;;;;;;5098898;28;20058;-73
2021/04/08 12:52:12;;;;;;;11.77;4.63;;;;;;;;;;5098902;28;20026;-73
2021/04/08 12:54:38;;;;;;;19.00;4.20;;;;;;;;;;5117156;28;20527;-73
2021/04/08 12:57:04;;;;;;;30.48;11.93;;;;;;;;;;5099100;28;20119;-73
2021/04/08 12:59:30;;;;;;;14.88;6.45;;;;;;;;;;5098771;28;20018;-72
2021/04/08 13:01:57;;;;;;;14.00;4.75;;;;;;;;;;5098972;28;20053;-74
2021/04/08 13:04:23;;;;;;;13.25;6.80;;;;;;;;;;5099023;28;20499;-73
2021/04/08 13:06:51;;;;;;;26.30;7.68;;;;;;;;;;5098628;28;20054;-70
2021/04/08 13:09:17;;;;;;;12.00;5.95;;;;;;;;;;5098809;28;20027;-73
2021/04/08 13:11:43;;;;;;;12.50;4.32;;;;;;;;;;5117231;28;20474;-74
2021/04/08 13:14:09;;;;;;;15.73;6.00;;;;;;;;;;5116765;28;20012;-71
2021/04/08 13:16:35;;;;;;;20.27;5.25;;;;;;;;;;5116803;28;20015;-73
2021/04/08 13:19:02;;;;;;;14.00;5.05;;;;;;;;;;5116918;28;20030;-74
2021/04/08 13:21:28;;;;;;;16.33;6.17;;;;;;;;;;5098053;28;20126;-74
2021/04/08 13:23:55;;;;;;;13.27;4.40;;;;;;;;;;5098526;28;20023;-73
2021/04/08 13:26:21;;;;;;;5.68;2.85;;;;;;;;;;5098993;28;20020;-72
2021/04/08 13:28:47;;;;;;;13.50;6.20;;;;;;;;;;5116414;28;20024;-71
2021/04/08 13:31:13;;;;;;;13.52;6.60;;;;;;;;;;5098399;28;20114;-74
2021/04/08 13:33:40;;;;;;;8.45;2.72;;;;;;;;;;5116339;28;20058;-74
2021/04/08 13:36:06;;;;;;;7.03;2.90;;;;;;;;;;5098239;28;20016;-71
2021/04/08 13:38:32;;;;;;;13.83;5.90;;;;;;;;;;5098996;28;20019;-72
2021/04/08 13:40:58;;;;;;;12.00;3.20;;;;;;;;;;5097893;28;20019;-70
2021/04/08 13:43:24;;;;;;;9.93;5.72;;;;;;;;;;5116454;28;20072;-72
2021/04/08 13:45:51;;;;;;;12.38;5.47;;;;;;;;;;5116378;28;20068;-71
2021/04/08 13:48:17;;;;;;;12.98;5.75;;;;;;;;;;5115718;28;20057;-71
2021/04/08 13:50:43;;;;;;;6.05;2.47;;;;;;;;;;5098027;28;20359;-71
2021/04/08 13:53:09;;;;;;;10.73;3.95;;;;;;;;;;5116831;28;20019;-73
2021/04/08 13:55:35;;;;;;;8.90;3.22;;;;;;;;;;5097727;28;20021;-75
2021/04/08 13:58:01;;;;;;;11.65;3.67;;;;;;;;;;5116250;28;20032;-73
2021/04/08 14:00:27;;;;;;;4.32;2.35;;;;;;;;;;5115445;28;20477;-74
2021/04/08 14:02:53;;;;;;;5.75;3.28;;;;;;;;;;5097525;28;20027;-74
2021/04/08 14:05:20;;;;;;;10.95;3.17;;;;;;;;;;5097845;28;20033;-73
2021/04/08 14:07:47;;;;;;;16.73;5.30;;;;;;;;;;5097658;28;20028;-73
2021/04/08 14:10:14;;;;;;;13.73;4.60;;;;;;;;;;5097328;28;20060;-71
2021/04/08 14:12:40;;;;;;;30.27;4.75;;;;;;;;;;5097776;28;20022;-71
2021/04/08 14:15:08;;;;;;;22.05;6.38;;;;;;;;;;5097482;28;20073;-71
2021/04/08 14:17:34;;;;;;;23.20;3.50;;;;;;;;;;5097634;28;20027;-72
2021/04/08 14:20:00;;;;;;;11.55;3.40;;;;;;;;;;5097330;28;20019;-72
2021/04/08 14:22:26;;;;;;;16.15;5.07;;;;;;;;;;5115670;28;20098;-73
2021/04/08 14:24:52;;;;;;;16.42;5.68;;;;;;;;;;5097423;28;20020;-72
2021/04/08 14:27:19;;;;;;;13.10;3.78;;;;;;;;;;5097287;28;20065;-71
2021/04/08 14:29:45;;;;;;;16.30;5.28;;;;;;;;;;5096996;28;20023;-73
2021/04/08 14:32:11;;;;;;;24.95;9.38;;;;;;;;;;5115498;28;20027;-70
2021/04/08 14:34:38;;;;;;;18.33;6.90;;;;;;;;;;5097363;28;20367;-71
2021/04/08 14:37:04;;;;;;;14.35;4.80;;;;;;;;;;5114916;28;20023;-72
2021/04/08 14:39:32;;;;;;;25.85;9.57;;;;;;;;;;5097148;28;20073;-72
2021/04/08 14:41:58;;;;;;;9.10;5.13;;;;;;;;;;5115403;28;20007;-73